createdAt,value
2023-12-15T00:00:40.021Z,87.55
2023-12-15T00:03:28.646Z,87.46
2023-12-15T00:05:59.297Z,87.38
2023-12-15T00:08:27.793Z,87.41
2023-12-15T00:10:56.276Z,87.27
2023-12-15T00:13:25.736Z,86.91
2023-12-15T00:15:55.139Z,87.18
2023-12-15T00:18:23.691Z,87.36
2023-12-15T00:20:52.420Z,87.39
2023-12-15T00:23:21.640Z,87.55
2023-12-15T00:25:50.354Z,87.69
2023-12-15T00:28:18.973Z,87.87
2023-12-15T00:30:47.503Z,88.07
2023-12-15T00:33:16.203Z,87.87
2023-12-15T00:35:47.635Z,87.83
2023-12-15T00:38:16.133Z,88.10
2023-12-15T00:40:44.671Z,88.11
2023-12-15T00:43:15.116Z,87.92
2023-12-15T00:45:43.613Z,87.47
2023-12-15T00:48:12.226Z,87.37
2023-12-15T00:50:40.954Z,87.36
2023-12-15T00:53:09.465Z,87.62
2023-12-15T00:55:38.732Z,88.09
2023-12-15T00:58:07.319Z,87.94
2023-12-15T01:00:35.866Z,88.04
2023-12-15T01:03:04.611Z,88.12
2023-12-15T01:05:33.321Z,88.17
2023-12-15T01:08:01.849Z,88.69
2023-12-15T01:10:30.449Z,88.65
2023-12-15T01:12:59.039Z,88.82
2023-12-15T01:15:27.619Z,88.56
2023-12-15T01:17:57.717Z,87.98
2023-12-15T01:20:26.718Z,87.04
2023-12-15T01:22:55.332Z,86.53
2023-12-15T01:25:23.908Z,85.68
2023-12-15T01:27:52.493Z,85.29
2023-12-15T01:30:21.130Z,85.30
2023-12-15T01:32:49.711Z,84.94
2023-12-15T01:35:18.290Z,85.04
2023-12-15T01:37:46.828Z,85.06
2023-12-15T01:40:15.824Z,85.14
2023-12-15T01:42:44.300Z,85.49
2023-12-15T01:45:12.796Z,85.40
2023-12-15T01:47:41.871Z,85.51
2023-12-15T01:50:10.824Z,85.72
2023-12-15T01:52:39.837Z,85.99
2023-12-15T01:55:08.765Z,86.07
2023-12-15T01:57:37.597Z,86.24
2023-12-15T02:00:08.866Z,86.22
2023-12-15T02:02:40.484Z,86.32
2023-12-15T02:05:09.508Z,86.39
2023-12-15T02:07:38.525Z,86.39
2023-12-15T02:10:07.737Z,86.55
2023-12-15T02:12:36.220Z,86.55
2023-12-15T02:15:05.314Z,86.58
2023-12-15T02:17:34.012Z,86.22
2023-12-15T02:20:02.767Z,86.48
2023-12-15T02:22:31.383Z,86.48
2023-12-15T02:25:00.003Z,86.46
2023-12-15T02:27:28.598Z,86.78
2023-12-15T02:29:57.002Z,86.82
2023-12-15T02:32:25.449Z,86.95
2023-12-15T02:34:54.132Z,86.88
2023-12-15T02:37:22.581Z,87.68
2023-12-15T02:39:51.069Z,87.48
2023-12-15T02:42:19.547Z,89.95
2023-12-15T02:44:48.037Z,89.70
2023-12-15T02:47:16.556Z,89.28
2023-12-15T02:49:45.097Z,89.45
2023-12-15T02:52:13.681Z,89.71
2023-12-15T02:54:42.061Z,90.03
2023-12-15T02:57:10.538Z,90.26
2023-12-15T02:59:41.281Z,89.99
2023-12-15T03:02:09.900Z,90.06
2023-12-15T03:04:38.443Z,89.99
2023-12-15T03:07:07.031Z,90.03
2023-12-15T03:09:35.509Z,89.84
2023-12-15T03:12:04.413Z,89.99
2023-12-15T03:14:32.942Z,89.74
2023-12-15T03:17:01.880Z,89.70
2023-12-15T03:19:30.486Z,89.60
2023-12-15T03:21:59.053Z,89.59
2023-12-15T03:24:27.753Z,89.37
2023-12-15T03:26:56.121Z,89.30
2023-12-15T03:29:24.565Z,89.21
2023-12-15T03:31:53.130Z,89.60
2023-12-15T03:34:21.503Z,89.60
2023-12-15T03:36:49.942Z,89.84
2023-12-15T03:39:18.424Z,90.19
2023-12-15T03:41:46.905Z,90.09
2023-12-15T03:44:15.376Z,90.24
2023-12-15T03:46:43.878Z,90.24
2023-12-15T03:49:12.530Z,90.18
2023-12-15T03:51:41.243Z,90.10
2023-12-15T03:54:09.730Z,90.12
2023-12-15T03:56:38.209Z,89.78
2023-12-15T03:59:07.352Z,89.60
2023-12-15T04:01:35.785Z,89.57
2023-12-15T04:04:04.691Z,89.67
2023-12-15T04:06:33.187Z,89.39
2023-12-15T04:09:01.543Z,89.09
2023-12-15T04:11:30.082Z,89.15
2023-12-15T04:13:58.948Z,88.99
2023-12-15T04:16:27.509Z,88.68
2023-12-15T04:18:56.350Z,88.57
2023-12-15T04:21:24.880Z,88.59
2023-12-15T04:23:53.677Z,88.49
2023-12-15T04:26:22.268Z,88.92
2023-12-15T04:28:50.742Z,89.10
2023-12-15T04:31:19.214Z,89.01
2023-12-15T04:33:47.615Z,88.91
2023-12-15T04:36:20.752Z,88.65
2023-12-15T04:38:49.262Z,88.44
2023-12-15T04:41:21.955Z,88.69
2023-12-15T04:43:50.761Z,88.90
2023-12-15T04:46:27.514Z,89.34
2023-12-15T04:48:58.676Z,88.85
2023-12-15T04:51:27.770Z,89.56
2023-12-15T04:53:56.340Z,90.81
2023-12-15T04:56:26.946Z,90.67
2023-12-15T04:58:55.696Z,91.16
2023-12-15T05:01:26.839Z,91.29
2023-12-15T05:03:55.545Z,90.72
2023-12-15T05:06:24.704Z,90.31
2023-12-15T05:08:53.731Z,89.89
2023-12-15T05:11:22.468Z,89.75
2023-12-15T05:13:50.957Z,89.77
2023-12-15T05:16:19.430Z,89.54
2023-12-15T05:18:47.915Z,89.41
2023-12-15T05:21:16.514Z,89.52
2023-12-15T05:23:45.000Z,89.27
2023-12-15T05:26:14.022Z,89.20
2023-12-15T05:28:42.571Z,89.30
2023-12-15T05:31:10.949Z,89.12
2023-12-15T05:33:39.545Z,89.06
2023-12-15T05:36:10.154Z,89.00
2023-12-15T05:38:40.987Z,88.75
2023-12-15T05:41:09.421Z,88.65
2023-12-15T05:43:38.068Z,88.86
2023-12-15T05:46:06.858Z,88.82
2023-12-15T05:48:35.601Z,88.89
2023-12-15T05:51:05.925Z,88.87
2023-12-15T05:53:42.411Z,88.95
2023-12-15T05:56:16.501Z,89.40
2023-12-15T05:58:45.600Z,89.40
2023-12-15T06:01:14.183Z,89.05
2023-12-15T06:03:43.312Z,89.22
2023-12-15T06:06:15.484Z,89.13
2023-12-15T06:08:44.296Z,89.16
2023-12-15T06:11:12.903Z,89.42
2023-12-15T06:13:43.344Z,89.86
2023-12-15T06:16:21.732Z,89.88
2023-12-15T06:18:50.596Z,89.54
2023-12-15T06:21:23.808Z,89.27
2023-12-15T06:23:52.947Z,89.32
2023-12-15T06:26:24.497Z,89.67
2023-12-15T06:28:57.415Z,89.73
2023-12-15T06:31:28.848Z,89.44
2023-12-15T06:33:57.728Z,89.49
2023-12-15T06:36:30.791Z,89.21
2023-12-15T06:38:59.767Z,89.47
2023-12-15T06:41:28.827Z,89.57
2023-12-15T06:43:57.401Z,89.47
2023-12-15T06:46:26.543Z,89.53
2023-12-15T06:48:55.220Z,89.53
2023-12-15T06:51:23.778Z,89.56
2023-12-15T06:53:52.094Z,89.73
2023-12-15T06:56:20.469Z,89.48
2023-12-15T06:58:48.897Z,89.61
2023-12-15T07:01:17.343Z,89.45
2023-12-15T07:03:45.964Z,89.40
2023-12-15T07:06:14.555Z,89.40
2023-12-15T07:08:43.520Z,89.10
2023-12-15T07:11:12.220Z,89.25
2023-12-15T07:13:40.978Z,89.06
2023-12-15T07:16:11.591Z,89.11
2023-12-15T07:18:41.086Z,89.07
2023-12-15T07:21:09.664Z,89.77
2023-12-15T07:23:39.196Z,89.59
2023-12-15T07:26:07.739Z,89.33
2023-12-15T07:28:37.210Z,89.24
2023-12-15T07:31:08.872Z,89.13
2023-12-15T07:33:38.852Z,89.33
2023-12-15T07:36:08.353Z,89.35
2023-12-15T07:38:36.998Z,89.47
2023-12-15T07:41:07.726Z,89.68
2023-12-15T07:43:39.297Z,89.54
2023-12-15T07:46:18.426Z,89.69
2023-12-15T07:48:47.297Z,89.59
2023-12-15T07:51:21.912Z,89.67
2023-12-15T07:53:50.392Z,89.75
2023-12-15T07:56:22.238Z,90.01
2023-12-15T07:58:52.154Z,90.18
2023-12-15T08:01:21.968Z,91.76
2023-12-15T08:03:51.534Z,91.23
2023-12-15T08:06:20.637Z,90.67
2023-12-15T08:08:50.276Z,90.73
2023-12-15T08:11:18.812Z,90.59
2023-12-15T08:13:47.976Z,90.49
2023-12-15T08:16:16.639Z,90.52
2023-12-15T08:18:45.577Z,90.39
2023-12-15T08:21:14.357Z,90.28
2023-12-15T08:23:43.629Z,90.03
2023-12-15T08:26:22.257Z,90.08
2023-12-15T08:28:51.265Z,89.77
2023-12-15T08:31:19.643Z,89.63
2023-12-15T08:33:48.313Z,89.53
2023-12-15T08:36:17.006Z,89.22
2023-12-15T08:38:45.491Z,89.14
2023-12-15T08:41:14.823Z,89.14
2023-12-15T08:43:43.475Z,88.92
2023-12-15T08:46:11.962Z,89.07
2023-12-15T08:48:40.664Z,88.98
2023-12-15T08:51:09.389Z,88.78
2023-12-15T08:53:38.077Z,88.70
2023-12-15T08:56:06.662Z,88.98
2023-12-15T08:58:35.188Z,88.74
2023-12-15T09:01:05.407Z,88.75
2023-12-15T09:03:34.239Z,88.71
2023-12-15T09:08:34.472Z,88.77
2023-12-15T09:11:03.200Z,88.74
2023-12-15T09:13:31.921Z,88.82
2023-12-15T09:16:00.498Z,88.97
2023-12-15T09:18:29.363Z,88.98
2023-12-15T09:20:58.353Z,88.72
2023-12-15T09:23:26.906Z,88.58
2023-12-15T09:25:55.454Z,87.25
2023-12-15T09:28:23.833Z,87.64
2023-12-15T09:30:52.424Z,87.59
2023-12-15T09:33:21.402Z,87.53
2023-12-15T09:35:55.175Z,87.07
2023-12-15T09:38:23.647Z,85.57
2023-12-15T09:40:52.192Z,85.98
2023-12-15T09:43:20.561Z,84.42
2023-12-15T09:45:49.175Z,84.60
2023-12-15T09:48:20.835Z,85.07
2023-12-15T09:50:55.502Z,84.06
2023-12-15T09:53:25.535Z,84.12
2023-12-15T09:55:54.813Z,84.21
2023-12-15T09:58:23.336Z,85.22
2023-12-15T10:00:52.449Z,84.36
2023-12-15T10:03:21.075Z,79.89
2023-12-15T10:05:51.760Z,79.90
2023-12-15T10:08:25.686Z,79.28
2023-12-15T10:10:54.762Z,76.77
2023-12-15T10:13:23.176Z,76.15
2023-12-15T10:15:54.773Z,74.17
2023-12-15T10:18:32.224Z,74.18
2023-12-15T10:21:08.153Z,73.64
2023-12-15T10:23:36.858Z,73.97
2023-12-15T10:26:06.789Z,72.85
2023-12-15T10:28:40.350Z,72.83
2023-12-15T10:31:10.075Z,72.48
2023-12-15T10:33:38.648Z,71.81
2023-12-15T10:36:08.909Z,71.38
2023-12-15T10:38:37.531Z,72.91
2023-12-15T10:41:08.916Z,74.10
2023-12-15T10:43:39.770Z,74.38
2023-12-15T10:46:10.813Z,74.28
2023-12-15T10:48:41.477Z,73.81
2023-12-15T10:51:11.212Z,72.22
2023-12-15T10:53:42.394Z,72.68
2023-12-15T10:56:11.149Z,72.84
2023-12-15T10:58:40.473Z,72.65
2023-12-15T11:01:10.992Z,72.25
2023-12-15T11:03:40.659Z,72.99
2023-12-15T11:06:10.435Z,72.17
2023-12-15T11:08:39.331Z,72.95
2023-12-15T11:11:11.560Z,71.89
2023-12-15T11:14:03.011Z,71.72
2023-12-15T11:16:37.155Z,71.85
2023-12-15T11:19:06.017Z,71.95
2023-12-15T11:21:35.568Z,71.40
2023-12-15T11:24:06.454Z,71.72
2023-12-15T11:26:39.301Z,72.16
2023-12-15T11:29:12.709Z,71.88
2023-12-15T11:31:43.981Z,71.94
2023-12-15T11:34:38.662Z,72.59
2023-12-15T11:37:08.085Z,73.04
2023-12-15T11:39:37.713Z,73.18
2023-12-15T11:42:06.788Z,73.15
2023-12-15T11:44:35.659Z,73.39
2023-12-15T11:47:06.906Z,73.86
2023-12-15T11:49:35.420Z,73.83
2023-12-15T11:52:09.853Z,73.63
2023-12-15T11:54:39.447Z,73.60
2023-12-15T11:57:08.035Z,73.66
2023-12-15T11:59:39.537Z,73.72
2023-12-15T12:02:08.195Z,73.51
2023-12-15T12:04:37.125Z,73.47
2023-12-15T12:07:05.951Z,73.61
2023-12-15T12:09:34.538Z,73.45
2023-12-15T12:12:03.091Z,73.38
2023-12-15T12:14:32.061Z,73.28
2023-12-15T12:17:00.628Z,73.56
2023-12-15T12:19:33.071Z,73.91
2023-12-15T12:22:01.454Z,73.70
2023-12-15T12:24:30.765Z,73.59
2023-12-15T12:27:00.177Z,73.79
2023-12-15T12:29:32.674Z,73.82
2023-12-15T12:32:01.175Z,74.00
2023-12-15T12:34:29.752Z,74.00
2023-12-15T12:36:58.394Z,74.53
2023-12-15T12:39:28.812Z,74.83
2023-12-15T12:41:57.375Z,74.47
2023-12-15T12:44:26.855Z,74.67
2023-12-15T12:46:55.390Z,74.06
2023-12-15T12:49:24.204Z,73.99
2023-12-15T12:51:53.418Z,74.29
2023-12-15T12:54:21.852Z,74.16
2023-12-15T12:56:59.854Z,74.27
2023-12-15T12:59:29.520Z,74.34
2023-12-15T13:02:07.384Z,74.55
2023-12-15T13:04:44.455Z,74.75
2023-12-15T13:07:13.085Z,74.75
2023-12-15T13:09:41.631Z,74.90
2023-12-15T13:12:14.632Z,74.95
2023-12-15T13:14:43.352Z,74.94
2023-12-15T13:17:12.469Z,75.06
2023-12-15T13:19:41.512Z,75.15
2023-12-15T13:22:10.090Z,75.17
2023-12-15T13:24:46.702Z,75.37
2023-12-15T13:27:23.529Z,75.66
2023-12-15T13:29:52.453Z,75.71
2023-12-15T13:32:21.173Z,75.73
2023-12-15T13:34:52.165Z,75.74
2023-12-15T13:37:21.361Z,75.81
2023-12-15T13:39:49.959Z,75.95
2023-12-15T13:42:20.183Z,76.15
2023-12-15T13:44:50.288Z,76.34
2023-12-15T13:47:18.950Z,76.64
2023-12-15T13:49:47.560Z,76.53
2023-12-15T13:52:16.164Z,76.30
2023-12-15T13:54:45.754Z,76.06
2023-12-15T13:57:14.556Z,76.31
2023-12-15T13:59:43.580Z,76.31
2023-12-15T14:02:12.180Z,76.12
2023-12-15T14:04:41.205Z,76.35
2023-12-15T14:07:09.804Z,76.17
2023-12-15T14:09:39.091Z,76.03
2023-12-15T14:12:07.646Z,75.75
2023-12-15T14:14:36.148Z,75.99
2023-12-15T14:17:07.708Z,76.02
2023-12-15T14:19:38.290Z,75.85
2023-12-15T14:22:08.669Z,75.91
2023-12-15T14:24:37.563Z,76.08
2023-12-15T14:27:06.189Z,76.04
2023-12-15T14:29:34.891Z,76.05
2023-12-15T14:32:03.881Z,76.03
2023-12-15T14:34:32.568Z,76.41
2023-12-15T14:37:01.423Z,76.55
2023-12-15T14:39:29.888Z,76.62
2023-12-15T14:41:58.634Z,76.77
2023-12-15T14:44:27.187Z,77.23
2023-12-15T14:46:55.961Z,77.14
2023-12-15T14:49:24.547Z,77.32
2023-12-15T14:51:53.120Z,77.60
2023-12-15T14:54:21.605Z,77.54
2023-12-15T14:56:52.933Z,77.74
2023-12-15T14:59:21.691Z,78.07
2023-12-15T15:01:50.235Z,78.20
2023-12-15T15:04:22.811Z,78.14
2023-12-15T15:06:52.053Z,77.97
2023-12-15T15:09:24.061Z,77.70
2023-12-15T15:11:52.690Z,77.77
2023-12-15T15:14:21.381Z,77.79
2023-12-15T15:16:49.922Z,77.69
2023-12-15T15:19:18.680Z,77.94
2023-12-15T15:21:47.183Z,78.06
2023-12-15T15:24:15.789Z,78.02
2023-12-15T15:26:44.300Z,78.09
2023-12-15T15:29:13.009Z,78.13
2023-12-15T15:31:42.341Z,78.27
2023-12-15T15:34:10.871Z,78.31
2023-12-15T15:36:39.677Z,78.47
2023-12-15T15:39:08.418Z,78.62
2023-12-15T15:41:37.107Z,78.83
2023-12-15T15:44:10.993Z,79.10
2023-12-15T15:46:43.597Z,79.22
2023-12-15T15:49:12.095Z,79.57
2023-12-15T15:51:40.907Z,79.56
2023-12-15T15:54:16.354Z,79.61
2023-12-15T15:56:48.120Z,79.46
2023-12-15T15:59:16.648Z,79.22
2023-12-15T16:01:45.398Z,79.10
2023-12-15T16:04:14.154Z,78.79
2023-12-15T16:06:42.981Z,78.74
2023-12-15T16:09:11.725Z,78.37
2023-12-15T16:11:40.390Z,78.44
2023-12-15T16:14:11.499Z,78.40
2023-12-15T16:16:41.411Z,78.62
2023-12-15T16:19:10.898Z,78.70
2023-12-15T16:21:39.624Z,78.73
2023-12-15T16:24:09.972Z,78.99
2023-12-15T16:26:39.515Z,78.92
2023-12-15T16:29:09.134Z,79.14
2023-12-15T16:31:37.899Z,79.43
2023-12-15T16:34:06.829Z,79.54
2023-12-15T16:36:35.925Z,79.57
2023-12-15T16:39:04.555Z,79.62
2023-12-15T16:41:33.628Z,79.26
2023-12-15T16:44:02.322Z,79.28
2023-12-15T16:46:30.916Z,78.88
2023-12-15T16:48:59.735Z,78.79
2023-12-15T16:51:37.400Z,78.71
2023-12-15T16:54:06.422Z,78.20
2023-12-15T16:56:34.837Z,78.17
2023-12-15T16:59:03.384Z,78.23
2023-12-15T17:01:32.003Z,78.43
2023-12-15T17:04:00.563Z,78.46
2023-12-15T17:06:29.339Z,78.65
2023-12-15T17:08:57.906Z,78.94
2023-12-15T17:11:26.395Z,78.97
2023-12-15T17:13:54.981Z,79.05
2023-12-15T17:16:23.557Z,79.41
2023-12-15T17:18:52.734Z,79.84
2023-12-15T17:21:21.446Z,80.22
2023-12-15T17:23:51.796Z,80.24
2023-12-15T17:26:20.364Z,80.40
2023-12-15T17:28:50.475Z,80.90
2023-12-15T17:31:19.008Z,81.02
2023-12-15T17:33:47.805Z,80.89
2023-12-15T17:36:16.844Z,81.01
2023-12-15T17:38:45.335Z,80.75
2023-12-15T17:41:21.967Z,80.56
2023-12-15T17:43:50.376Z,80.36
2023-12-15T17:46:26.415Z,80.32
2023-12-15T17:48:55.023Z,80.28
2023-12-15T17:51:23.867Z,80.01
2023-12-15T17:53:52.511Z,79.79
2023-12-15T17:56:21.095Z,79.44
2023-12-15T17:58:49.485Z,79.44
2023-12-15T18:01:18.802Z,79.53
2023-12-15T18:03:47.450Z,79.60
2023-12-15T18:06:16.093Z,80.02
2023-12-15T18:08:46.316Z,79.67
2023-12-15T18:11:25.942Z,79.63
2023-12-15T18:13:56.939Z,79.16
2023-12-15T18:16:25.939Z,78.91
2023-12-15T18:18:56.551Z,78.74
2023-12-15T18:21:27.457Z,78.85
2023-12-15T18:23:56.406Z,79.05
2023-12-15T18:26:24.783Z,78.28
2023-12-15T18:28:53.391Z,78.32
2023-12-15T18:31:23.168Z,77.70
2023-12-15T18:33:53.620Z,77.31
2023-12-15T18:36:22.198Z,77.21
2023-12-15T18:38:50.579Z,77.31
2023-12-15T18:41:19.262Z,77.54
2023-12-15T18:43:47.961Z,77.50
2023-12-15T18:46:17.810Z,77.86
2023-12-15T18:48:46.622Z,77.87
2023-12-15T18:51:19.646Z,78.13
2023-12-15T18:53:48.736Z,77.88
2023-12-15T18:56:19.923Z,78.09
2023-12-15T18:58:50.149Z,78.12
2023-12-15T19:01:20.622Z,77.85
2023-12-15T19:03:49.480Z,78.31
2023-12-15T19:06:24.403Z,78.20
2023-12-15T19:08:53.772Z,78.24
2023-12-15T19:11:31.239Z,78.13
2023-12-15T19:14:00.171Z,77.77
2023-12-15T19:16:31.569Z,77.69
2023-12-15T19:19:00.422Z,77.59
2023-12-15T19:21:29.280Z,77.06
2023-12-15T19:23:57.971Z,77.36
2023-12-15T19:26:28.542Z,77.04
2023-12-15T19:28:59.024Z,77.08
2023-12-15T19:31:28.282Z,76.83
2023-12-15T19:33:57.144Z,77.09
2023-12-15T19:36:25.782Z,77.10
2023-12-15T19:38:54.205Z,77.29
2023-12-15T19:41:23.583Z,77.37
2023-12-15T19:43:52.307Z,77.36
2023-12-15T19:46:26.389Z,77.66
2023-12-15T19:48:54.938Z,77.67
2023-12-15T19:51:24.091Z,77.64
2023-12-15T19:53:52.757Z,77.69
2023-12-15T19:56:27.473Z,78.03
2023-12-15T19:58:57.515Z,78.07
2023-12-15T20:01:28.917Z,78.28
2023-12-15T20:03:58.934Z,78.04
2023-12-15T20:06:32.218Z,77.90
2023-12-15T20:09:01.299Z,77.58
2023-12-15T20:11:29.888Z,77.43
2023-12-15T20:13:58.340Z,77.18
2023-12-15T20:16:26.712Z,76.82
2023-12-15T20:18:55.284Z,76.95
2023-12-15T20:21:24.187Z,77.10
2023-12-15T20:23:52.688Z,77.20
2023-12-15T20:26:21.272Z,77.29
2023-12-15T20:28:49.740Z,77.48
2023-12-15T20:31:18.412Z,77.40
2023-12-15T20:33:47.305Z,77.34
2023-12-15T20:36:20.354Z,77.34
2023-12-15T20:38:49.136Z,77.67
2023-12-15T20:41:20.727Z,77.96
2023-12-15T20:43:50.516Z,77.83
2023-12-15T20:46:19.584Z,78.16
2023-12-15T20:48:49.319Z,78.20
2023-12-15T20:51:23.235Z,78.18
2023-12-15T20:53:52.303Z,78.21
2023-12-15T20:56:27.558Z,78.34
2023-12-15T20:58:56.704Z,78.09
2023-12-15T21:01:25.956Z,78.03
2023-12-15T21:03:55.367Z,77.94
2023-12-15T21:06:25.504Z,77.72
2023-12-15T21:08:54.100Z,77.76
2023-12-15T21:11:23.173Z,77.68
2023-12-15T21:13:57.028Z,77.67
2023-12-15T21:16:28.465Z,77.92
2023-12-15T21:18:57.927Z,77.87
2023-12-15T21:21:28.165Z,78.10
2023-12-15T21:23:57.316Z,78.23
2023-12-15T21:26:25.687Z,78.34
2023-12-15T21:28:57.018Z,78.32
2023-12-15T21:31:26.234Z,78.44
2023-12-15T21:33:56.576Z,78.50
2023-12-15T21:36:25.143Z,78.62
2023-12-15T21:38:53.637Z,78.75
2023-12-15T21:41:22.315Z,78.80
2023-12-15T21:43:53.047Z,78.67
2023-12-15T21:46:21.607Z,78.70
2023-12-15T21:48:50.303Z,78.64
2023-12-15T21:51:21.488Z,78.75
2023-12-15T21:53:49.841Z,78.62
2023-12-15T21:56:18.324Z,78.55
2023-12-15T21:58:46.710Z,78.60
2023-12-15T22:01:16.771Z,78.52
2023-12-15T22:03:50.156Z,78.68
2023-12-15T22:06:23.320Z,78.73
2023-12-15T22:08:52.278Z,78.62
2023-12-15T22:11:20.914Z,78.79
2023-12-15T22:13:49.424Z,78.78
2023-12-15T22:16:18.020Z,79.26
2023-12-15T22:18:46.984Z,79.12
2023-12-15T22:21:15.544Z,80.03
2023-12-15T22:23:45.114Z,80.04
2023-12-15T22:26:14.514Z,79.74
2023-12-15T22:28:43.115Z,79.56
2023-12-15T22:31:11.656Z,80.21
2023-12-15T22:33:40.599Z,80.41
2023-12-15T22:36:09.407Z,81.06
2023-12-15T22:38:40.240Z,81.03
2023-12-15T22:41:13.794Z,80.57
2023-12-15T22:43:45.610Z,80.50
2023-12-15T22:46:14.117Z,80.52
2023-12-15T22:48:43.325Z,80.50
2023-12-15T22:51:12.002Z,80.44
2023-12-15T22:53:40.551Z,80.34
2023-12-15T22:56:12.721Z,80.29
2023-12-15T22:58:41.417Z,80.17
2023-12-15T23:01:11.056Z,79.92
2023-12-15T23:03:40.123Z,79.50
2023-12-15T23:06:09.199Z,79.14
2023-12-15T23:08:38.061Z,78.53
2023-12-15T23:11:06.794Z,78.17
2023-12-15T23:13:35.993Z,77.98
2023-12-15T23:16:05.016Z,77.73
2023-12-15T23:18:34.040Z,77.22
2023-12-15T23:21:12.339Z,77.23
2023-12-15T23:23:44.573Z,77.45
2023-12-15T23:26:13.070Z,77.50
2023-12-15T23:28:41.650Z,77.41
2023-12-15T23:31:10.920Z,77.25
2023-12-15T23:33:39.571Z,77.30
2023-12-15T23:36:14.760Z,76.29
2023-12-15T23:38:43.465Z,76.10
2023-12-15T23:41:12.481Z,76.08
2023-12-15T23:43:40.927Z,76.04
2023-12-15T23:46:09.649Z,75.72
2023-12-15T23:48:38.538Z,74.87
2023-12-15T23:51:08.679Z,74.97
2023-12-15T23:53:37.205Z,75.33
2023-12-15T23:56:06.228Z,74.84
2023-12-15T23:58:34.681Z,74.90
